Time;durP1;ratioP1;P1;durP2;ratioP2;P2;SDS_P1;SDS_P2;PMS_P1;PMS_P2;Temp;Humidity;BMP_temperature;BMP_pressure;BME280_temperature;BME280_humidity;BME280_pressure;Samples;Min_cycle;Max_cycle;Signal;HPM_P1;HPM_P2
2022/10/17 00:02:02;;;;;;;3.95;2.38;;;;;;;9.80;100.00;101543.53;4906513;29;20064;-78
2022/10/17 00:04:29;;;;;;;8.23;3.00;;;;;;;9.83;100.00;101532.94;4895049;29;20130;-77
2022/10/17 00:06:56;;;;;;;4.13;2.20;;;;;;;9.84;100.00;101537.38;4909893;29;20044;-77
2022/10/17 00:09:25;;;;;;;6.45;2.30;;;;;;;9.82;100.00;101549.66;4923456;29;20513;-78
2022/10/17 00:11:52;;;;;;;3.90;1.80;;;;;;;9.73;100.00;101539.13;4915485;29;20048;-78
2022/10/17 00:14:19;;;;;;;2.55;2.25;;;;;;;9.65;100.00;101546.19;4920991;29;20044;-78
2022/10/17 00:16:45;;;;;;;5.90;2.35;;;;;;;9.61;100.00;101538.31;4923456;29;20177;-78
2022/10/17 00:19:15;;;;;;;4.40;2.13;;;;;;;9.58;100.00;101532.16;4900715;29;20055;-77
2022/10/17 00:21:42;;;;;;;5.38;2.97;;;;;;;9.64;100.00;101536.53;4885329;29;20055;-78
2022/10/17 00:24:08;;;;;;;3.47;2.00;;;;;;;9.61;100.00;101538.31;4916219;29;20078;-78
2022/10/17 00:26:35;;;;;;;5.30;2.72;;;;;;;9.64;100.00;101527.72;4934078;29;20044;-78
2022/10/17 00:29:01;;;;;;;4.20;2.58;;;;;;;9.63;100.00;101537.41;4898635;29;20044;-78
2022/10/17 00:31:28;;;;;;;3.58;2.47;;;;;;;9.71;100.00;101540.03;4917956;29;20039;-78
2022/10/17 00:33:55;;;;;;;3.85;2.35;;;;;;;9.71;100.00;101546.19;4892404;29;20044;-78
2022/10/17 00:36:24;;;;;;;3.88;2.33;;;;;;;9.65;100.00;101547.97;4904733;29;20052;-78
2022/10/17 00:38:53;;;;;;;4.05;2.30;;;;;;;9.72;100.00;101547.94;4905117;29;20036;-77
2022/10/17 00:41:23;;;;;;;2.63;2.30;;;;;;;9.74;100.00;101547.94;4905218;29;20418;-77
2022/10/17 00:44:26;;;;;;;11.23;2.60;;;;;;;9.77;100.00;101537.38;4936829;29;20044;-78
2022/10/17 00:46:52;;;;;;;4.78;2.28;;;;;;;9.85;100.00;101549.69;4896823;29;20108;-76
2022/10/17 00:49:20;;;;;;;3.60;2.00;;;;;;;9.96;100.00;101546.97;4913960;29;20495;-77
2022/10/17 00:52:25;;;;;;;4.78;2.55;;;;;;;9.95;100.00;101542.59;4899103;29;20044;-78
2022/10/17 00:55:00;;;;;;;3.97;2.30;;;;;;;9.85;100.00;101540.88;4898830;29;20074;-77
2022/10/17 00:57:28;;;;;;;7.78;2.03;;;;;;;9.81;100.00;101542.63;4932594;29;20040;-78
2022/10/17 00:59:55;;;;;;;4.20;2.90;;;;;;;9.83;100.00;101538.22;4925251;29;20043;-78
2022/10/17 01:02:22;;;;;;;5.13;2.47;;;;;;;9.79;100.00;101541.75;4945803;29;20044;-78
2022/10/17 01:04:50;;;;;;;4.03;2.75;;;;;;;9.84;100.00;101544.41;4884835;29;20051;-78
2022/10/17 01:07:16;;;;;;;2.80;2.10;;;;;;;9.88;100.00;101559.34;4916540;29;20037;-78
2022/10/17 01:09:44;;;;;;;4.75;2.42;;;;;;;9.94;100.00;101551.41;4912631;29;20048;-77
2022/10/17 01:12:28;;;;;;;4.47;2.10;;;;;;;9.94;100.00;101555.81;4895617;29;20054;-76
2022/10/17 01:15:26;;;;;;;4.65;2.53;;;;;;;10.00;100.00;101551.34;4899930;29;20462;-78
2022/10/17 01:17:55;;;;;;;3.72;2.17;;;;;;;9.98;100.00;101553.13;4910225;29;20040;-78
2022/10/17 01:20:50;;;;;;;2.58;2.20;;;;;;;9.98;100.00;101552.25;4915231;29;20108;-77
2022/10/17 01:23:29;;;;;;;7.10;3.17;;;;;;;10.05;100.00;101549.59;4918816;29;20040;-78
2022/10/17 01:25:59;;;;;;;6.55;2.50;;;;;;;10.12;100.00;101553.97;4927070;29;20389;-76
2022/10/17 01:28:45;;;;;;;4.53;2.47;;;;;;;10.08;100.00;101549.56;4915441;29;20044;-77
2022/10/17 01:31:13;;;;;;;4.85;2.13;;;;;;;10.15;100.00;101532.81;4912276;29;20502;-78
2022/10/17 01:33:52;;;;;;;2.88;2.53;;;;;;;10.08;100.00;101544.28;4891784;29;20151;-77
2022/10/17 01:36:32;;;;;;;5.78;2.70;;;;;;;10.04;100.00;101536.41;4923836;29;20044;-78
2022/10/17 01:39:08;;;;;;;3.28;2.05;;;;;;;10.02;100.00;101543.44;4917741;29;20088;-77
2022/10/17 01:41:49;;;;;;;3.72;2.28;;;;;;;10.03;100.00;101534.66;4893797;29;20096;-77
2022/10/17 01:44:31;;;;;;;4.55;2.47;;;;;;;10.15;100.00;101543.38;4911097;29;20052;-78
2022/10/17 01:47:04;;;;;;;3.85;2.42;;;;;;;10.14;100.00;101541.63;4920522;29;20048;-78
2022/10/17 01:49:32;;;;;;;3.30;2.53;;;;;;;10.11;100.00;101535.50;4899021;29;20409;-76
2022/10/17 01:52:06;;;;;;;4.43;2.90;;;;;;;10.11;100.00;101533.72;4916149;29;20048;-77
2022/10/17 01:54:40;;;;;;;3.17;2.08;;;;;;;10.14;100.00;101516.97;4922301;29;20048;-77
2022/10/17 01:57:10;;;;;;;2.85;2.25;;;;;;;10.20;100.00;101519.59;4911147;29;20474;-77
2022/10/17 01:59:41;;;;;;;5.47;2.40;;;;;;;10.27;100.00;101512.56;4903283;29;20122;-77
2022/10/17 02:02:08;;;;;;;4.97;2.08;;;;;;;10.19;100.00;101514.34;4906309;29;20040;-78
2022/10/17 02:04:36;;;;;;;6.00;2.60;;;;;;;10.20;100.00;101508.16;4920392;29;20054;-77
2022/10/17 02:07:07;;;;;;;2.90;2.20;;;;;;;10.13;100.00;101508.19;4906690;29;20517;-78
2022/10/17 02:09:35;;;;;;;3.13;2.35;;;;;;;10.11;100.00;101507.31;4899349;29;20052;-78
2022/10/17 02:12:48;;;;;;;5.20;2.70;;;;;;;10.02;100.00;101506.50;4917844;29;20043;-78
2022/10/17 02:15:57;;;;;;;5.80;2.50;;;;;;;9.97;100.00;101501.22;4900300;29;20056;-78
2022/10/17 02:18:54;;;;;;;3.15;2.33;;;;;;;9.92;100.00;101500.38;4887878;29;20103;-78
2022/10/17 02:21:33;;;;;;;5.47;2.22;;;;;;;9.89;100.00;101497.75;4899727;29;20095;-78
2022/10/17 02:24:19;;;;;;;5.85;2.08;;;;;;;9.83;100.00;101497.75;4919228;29;20044;-78
2022/10/17 02:26:54;;;;;;;4.00;1.90;;;;;;;9.80;100.00;101495.13;4907497;29;20047;-77
2022/10/17 02:29:26;;;;;;;5.18;2.40;;;;;;;9.82;100.00;101496.88;4895094;29;20088;-78
2022/10/17 02:32:03;;;;;;;2.78;2.25;;;;;;;9.85;100.00;101493.38;4883089;29;20055;-78
2022/10/17 02:34:34;;;;;;;4.50;2.47;;;;;;;9.81;100.00;101484.56;4911595;29;20040;-78
2022/10/17 02:37:04;;;;;;;5.25;2.67;;;;;;;9.76;100.00;101485.50;4917499;29;20454;-78
2022/10/17 02:39:31;;;;;;;5.03;3.67;;;;;;;9.78;100.00;101481.97;4928289;28;20051;-79
2022/10/17 02:42:01;;;;;;;7.38;4.43;;;;;;;9.76;100.00;101481.09;4908348;29;20043;-78
2022/10/17 02:44:28;;;;;;;5.93;3.63;;;;;;;9.74;100.00;101474.03;4919151;29;20048;-79
2022/10/17 02:47:00;;;;;;;4.30;3.17;;;;;;;9.78;100.00;101481.09;4933725;29;20070;-77
2022/10/17 02:49:30;;;;;;;6.22;2.67;;;;;;;9.88;100.00;101477.50;4884821;29;20033;-78
2022/10/17 02:52:33;;;;;;;7.18;2.95;;;;;;;9.84;100.00;101473.16;4891738;29;20069;-78
2022/10/17 02:55:06;;;;;;;4.57;2.60;;;;;;;9.72;100.00;101467.91;4895723;29;20213;-78
2022/10/17 02:57:51;;;;;;;4.65;2.30;;;;;;;9.74;100.00;101463.50;4924966;29;20035;-78
2022/10/17 03:00:19;;;;;;;5.70;2.67;;;;;;;9.74;100.00;101471.41;4896123;29;20514;-76
2022/10/17 03:02:48;;;;;;;7.30;2.78;;;;;;;9.78;100.00;101466.13;4913360;29;20052;-77
2022/10/17 03:05:20;;;;;;;4.60;2.72;;;;;;;9.81;100.00;101465.22;4905835;29;20096;-78
2022/10/17 03:07:47;;;;;;;5.30;2.80;;;;;;;9.70;100.00;101459.13;4929363;29;20087;-76
2022/10/17 03:10:14;;;;;;;4.05;2.50;;;;;;;9.76;100.00;101453.81;4914629;29;20092;-78
2022/10/17 03:12:41;;;;;;;5.03;2.42;;;;;;;9.72;100.00;101462.63;4913498;29;20052;-77
2022/10/17 03:15:08;;;;;;;4.65;2.33;;;;;;;9.78;100.00;101462.59;4907194;29;20048;-78
2022/10/17 03:17:35;;;;;;;5.35;2.65;;;;;;;9.72;100.00;101470.53;4912533;29;20036;-76
2022/10/17 03:20:03;;;;;;;4.03;2.42;;;;;;;9.82;100.00;101474.88;4930059;29;20050;-77
2022/10/17 03:22:30;;;;;;;3.08;2.00;;;;;;;9.73;100.00;101483.72;4900169;29;20453;-77
2022/10/17 03:24:57;;;;;;;6.40;2.80;;;;;;;9.67;100.00;101490.78;4910618;29;20052;-77
2022/10/17 03:27:24;;;;;;;2.85;2.40;;;;;;;9.69;100.00;101489.03;4945502;29;20087;-76
2022/10/17 03:29:50;;;;;;;4.40;2.30;;;;;;;9.71;100.00;101488.13;4943761;28;20055;-78
2022/10/17 03:32:17;;;;;;;3.08;2.50;;;;;;;9.74;100.00;101490.75;4905669;29;20044;-76
2022/10/17 03:34:43;;;;;;;3.70;2.63;;;;;;;9.78;100.00;101481.97;4920311;29;20074;-77
2022/10/17 03:37:10;;;;;;;8.18;2.38;;;;;;;9.78;100.00;101487.22;4912999;29;20048;-79
2022/10/17 03:39:37;;;;;;;4.10;2.30;;;;;;;9.83;100.00;101482.78;4915474;29;20032;-77
2022/10/17 03:42:03;;;;;;;4.22;2.53;;;;;;;9.85;100.00;101486.34;4919442;29;20040;-76
2022/10/17 03:44:30;;;;;;;4.15;2.22;;;;;;;9.90;100.00;101472.22;4913615;29;20071;-77
2022/10/17 03:46:57;;;;;;;3.90;2.60;;;;;;;9.92;100.00;101476.63;4912635;29;20091;-76
2022/10/17 03:49:23;;;;;;;5.53;2.97;;;;;;;9.97;100.00;101469.53;4924839;29;20742;-78
2022/10/17 03:51:50;;;;;;;5.80;3.08;;;;;;;10.02;100.00;101466.91;4931665;29;20076;-77
2022/10/17 03:54:16;;;;;;;5.32;3.25;;;;;;;10.08;100.00;101461.56;4916174;29;20051;-76
2022/10/17 03:56:43;;;;;;;6.60;2.97;;;;;;;10.09;100.00;101464.22;4923316;29;20510;-77
2022/10/17 03:59:14;;;;;;;5.85;2.92;;;;;;;10.11;100.00;101465.06;4932782;28;20124;-76
2022/10/17 04:01:41;;;;;;;5.75;2.95;;;;;;;10.17;100.00;101461.50;4894603;29;20072;-77
2022/10/17 04:04:08;;;;;;;5.18;2.88;;;;;;;10.20;100.00;101456.22;4917103;29;20483;-76
2022/10/17 04:06:35;;;;;;;3.95;3.13;;;;;;;10.25;100.00;101457.09;4911689;29;20040;-77
2022/10/17 04:09:03;;;;;;;4.28;2.10;;;;;;;10.31;100.00;101446.50;4897729;29;20040;-77
2022/10/17 04:11:30;;;;;;;5.28;2.60;;;;;;;10.26;100.00;101447.44;4949889;23;20123;-85
2022/10/17 04:13:58;;;;;;;3.83;2.80;;;;;;;10.38;100.00;101445.56;4966734;28;20500;-84
2022/10/17 04:16:25;;;;;;;4.50;2.65;;;;;;;10.29;100.00;101444.75;4945417;28;20594;-85
2022/10/17 04:18:55;;;;;;;3.47;2.60;;;;;;;10.25;100.00;101451.81;4921527;29;20138;-84
2022/10/17 04:21:24;;;;;;;6.35;2.50;;;;;;;10.24;100.00;101441.25;4929799;29;20047;-84
2022/10/17 04:23:55;;;;;;;3.80;2.33;;;;;;;10.19;100.00;101441.28;4916726;29;20095;-85
2022/10/17 04:26:22;;;;;;;3.33;2.30;;;;;;;10.13;100.00;101444.81;4915988;29;20482;-84
2022/10/17 04:28:49;;;;;;;3.67;2.55;;;;;;;10.10;100.00;101449.25;4931291;29;20091;-84
2022/10/17 04:31:17;;;;;;;4.78;2.72;;;;;;;10.18;100.00;101449.22;4933471;29;20040;-84
2022/10/17 04:33:47;;;;;;;6.88;2.55;;;;;;;10.10;100.00;101442.22;4932166;29;20055;-84
2022/10/17 04:36:16;;;;;;;3.58;2.50;;;;;;;10.16;100.00;101442.13;4923927;29;20044;-84
2022/10/17 04:38:43;;;;;;;6.53;3.47;;;;;;;10.24;100.00;101442.13;4927437;29;20047;-83
2022/10/17 04:41:12;;;;;;;6.03;2.92;;;;;;;10.20;100.00;101444.78;4916100;29;20063;-84
2022/10/17 04:43:39;;;;;;;3.70;2.55;;;;;;;10.23;100.00;101442.16;4903441;29;20043;-84
2022/10/17 04:46:08;;;;;;;3.72;2.60;;;;;;;10.22;100.00;101446.56;4902764;29;20046;-83
2022/10/17 04:48:34;;;;;;;5.93;2.58;;;;;;;10.20;100.00;101436.88;4933704;29;20417;-84
2022/10/17 04:51:04;;;;;;;4.03;2.53;;;;;;;10.25;100.00;101443.00;4915474;29;20040;-84
2022/10/17 04:53:31;;;;;;;3.17;2.65;;;;;;;10.30;100.00;101438.59;4915954;29;20462;-83
2022/10/17 04:55:58;;;;;;;4.20;2.72;;;;;;;10.32;100.00;101439.44;4915530;29;20059;-84
2022/10/17 04:58:27;;;;;;;4.93;2.95;;;;;;;10.33;100.00;101442.06;4916304;29;20037;-83
2022/10/17 05:00:55;;;;;;;5.07;2.72;;;;;;;10.26;100.00;101442.16;4916395;29;20071;-83
2022/10/17 05:03:21;;;;;;;2.90;2.53;;;;;;;10.21;100.00;101450.06;4916079;29;20080;-84
2022/10/17 05:05:48;;;;;;;2.88;2.55;;;;;;;10.23;100.00;101442.16;4915287;29;20048;-84
2022/10/17 05:08:14;;;;;;;5.15;2.72;;;;;;;10.29;100.00;101445.63;4917725;29;20044;-84
2022/10/17 05:10:43;;;;;;;4.57;2.67;;;;;;;10.27;100.00;101450.06;4918684;29;20040;-82
2022/10/17 05:13:10;;;;;;;5.03;2.60;;;;;;;10.21;100.00;101447.41;4928947;29;20058;-84
2022/10/17 05:15:37;;;;;;;4.07;2.30;;;;;;;10.19;100.00;101448.31;4934892;29;20191;-84
2022/10/17 05:18:04;;;;;;;4.88;2.63;;;;;;;10.16;100.00;101443.91;4926673;29;20063;-84
2022/10/17 05:20:32;;;;;;;4.75;2.95;;;;;;;10.19;100.00;101443.91;4917442;29;20095;-79
2022/10/17 05:22:59;;;;;;;3.22;2.40;;;;;;;10.16;100.00;101444.78;4888514;29;20048;-81
2022/10/17 05:25:25;;;;;;;3.60;2.90;;;;;;;10.16;100.00;101442.13;4938404;29;20501;-80
2022/10/17 05:27:52;;;;;;;3.50;2.60;;;;;;;10.19;100.00;101443.03;4921923;29;20047;-79
2022/10/17 05:30:19;;;;;;;5.82;2.85;;;;;;;10.18;100.00;101441.28;4916491;29;20043;-79
2022/10/17 05:32:46;;;;;;;4.93;2.35;;;;;;;10.11;100.00;101443.09;4932757;29;20044;-84
2022/10/17 05:35:13;;;;;;;6.28;2.58;;;;;;;10.10;100.00;101442.22;4929883;29;20126;-85
2022/10/17 05:37:39;;;;;;;5.47;3.08;;;;;;;10.11;100.00;101443.97;4918143;29;20493;-85
2022/10/17 05:40:06;;;;;;;4.72;2.58;;;;;;;10.11;100.00;101443.09;4934949;29;20090;-84
2022/10/17 05:42:33;;;;;;;3.45;2.47;;;;;;;10.09;100.00;101448.38;4918819;29;20051;-85
2022/10/17 05:45:00;;;;;;;3.25;2.38;;;;;;;10.09;100.00;101437.81;4918585;29;20471;-84
2022/10/17 05:47:26;;;;;;;4.22;2.40;;;;;;;10.03;100.00;101447.53;4916739;29;20095;-84
2022/10/17 05:49:54;;;;;;;2.67;1.90;;;;;;;10.01;100.00;101446.66;4931629;29;20056;-85
2022/10/17 05:52:20;;;;;;;6.80;2.92;;;;;;;10.03;100.00;101443.13;4932039;29;20043;-83
2022/10/17 05:54:47;;;;;;;5.20;2.80;;;;;;;10.05;100.00;101445.75;4935650;29;20044;-82
2022/10/17 05:57:14;;;;;;;4.35;2.33;;;;;;;10.10;100.00;101442.22;4935247;29;20048;-82
2022/10/17 05:59:40;;;;;;;5.18;2.40;;;;;;;10.06;100.00;101452.78;4936008;29;20047;-83
2022/10/17 06:02:10;;;;;;;4.00;2.83;;;;;;;10.08;100.00;101443.94;4939212;29;20095;-81
2022/10/17 06:07:17;;;;;;;3.10;2.60;;;;;;;10.07;100.00;101462.44;5054189;23;20165;-84
2022/10/17 06:09:44;;;;;;;4.25;2.60;;;;;;;10.19;100.00;101461.53;5088908;23;20117;-81
2022/10/17 06:12:11;;;;;;;3.50;2.63;;;;;;;10.18;100.00;101463.28;4957375;23;20070;-81
2022/10/17 06:14:38;;;;;;;7.60;2.53;;;;;;;10.19;100.00;101457.13;4936652;29;20036;-81
2022/10/17 06:17:05;;;;;;;5.50;2.60;;;;;;;10.22;100.00;101469.41;4943934;28;20044;-81
2022/10/17 06:19:32;;;;;;;3.75;3.03;;;;;;;10.28;100.00;101464.13;4937721;29;20408;-83
2022/10/17 06:21:59;;;;;;;4.60;2.88;;;;;;;10.28;100.00;101469.41;4921337;29;20063;-85
2022/10/17 06:24:25;;;;;;;3.70;2.40;;;;;;;10.30;100.00;101462.34;4949641;29;20046;-85
2022/10/17 06:26:52;;;;;;;4.20;2.47;;;;;;;10.31;100.00;101467.63;4911911;29;20048;-85
2022/10/17 06:29:19;;;;;;;4.75;2.92;;;;;;;10.43;100.00;101464.03;4933024;29;20044;-84
2022/10/17 06:31:45;;;;;;;4.93;2.83;;;;;;;10.56;100.00;101455.13;4949119;28;20051;-84
2022/10/17 06:34:12;;;;;;;3.70;3.00;;;;;;;10.57;100.00;101464.78;4933380;29;20051;-85
2022/10/17 06:36:38;;;;;;;6.93;3.13;;;;;;;10.68;100.00;101468.25;4947741;29;20484;-84
2022/10/17 06:39:05;;;;;;;4.25;3.45;;;;;;;10.76;100.00;101475.22;4920488;29;20063;-84
2022/10/17 06:41:32;;;;;;;5.25;4.03;;;;;;;10.87;100.00;101476.03;4935732;29;20050;-84
2022/10/17 06:43:58;;;;;;;5.60;4.25;;;;;;;11.05;100.00;101481.13;4922556;29;20575;-84
2022/10/17 06:46:28;;;;;;;6.00;3.53;;;;;;;11.21;100.00;101479.22;4935801;29;20075;-84
2022/10/17 06:48:54;;;;;;;8.50;3.88;;;;;;;11.22;100.00;101476.56;4936024;29;20047;-84
2022/10/17 06:51:21;;;;;;;4.78;3.90;;;;;;;11.25;100.00;101476.50;4933954;29;20047;-84
2022/10/17 06:53:48;;;;;;;5.60;3.35;;;;;;;11.34;100.00;101475.53;4910579;29;20094;-84
2022/10/17 06:56:14;;;;;;;8.43;4.65;;;;;;;11.48;100.00;101475.41;4932070;29;20044;-84
2022/10/17 06:58:41;;;;;;;8.13;4.55;;;;;;;11.55;100.00;101477.09;4934196;29;20039;-85
2022/10/17 07:01:11;;;;;;;6.85;4.20;;;;;;;11.62;100.00;101477.91;4935547;29;20094;-84
2022/10/17 07:03:39;;;;;;;7.28;3.90;;;;;;;11.66;100.00;101482.25;4949401;29;20053;-85
2022/10/17 07:06:06;;;;;;;6.18;4.30;;;;;;;11.73;100.00;101479.53;4935518;28;20195;-84
2022/10/17 07:08:32;;;;;;;6.60;5.60;;;;;;;11.98;100.00;101476.59;4936119;29;20035;-85
2022/10/17 07:11:08;;;;;;;7.88;5.97;;;;;;;12.09;100.00;101469.38;4920254;29;20047;-85
2022/10/17 07:13:34;;;;;;;6.72;5.28;;;;;;;12.14;100.00;101477.28;4920138;29;20058;-85
2022/10/17 07:16:05;;;;;;;8.13;5.65;;;;;;;12.17;100.00;101466.63;4920123;29;20042;-85
2022/10/17 07:18:32;;;;;;;7.85;5.50;;;;;;;12.32;100.00;101469.06;4919540;29;20043;-85
2022/10/17 07:20:58;;;;;;;6.25;5.35;;;;;;;12.47;100.00;101476.78;4923292;29;20047;-85
2022/10/17 07:23:25;;;;;;;9.60;6.20;;;;;;;12.49;100.00;101474.97;4948917;29;20058;-85
2022/10/17 07:25:52;;;;;;;8.95;5.90;;;;;;;12.68;100.00;101480.84;4919636;29;20055;-85
2022/10/17 07:28:19;;;;;;;7.10;5.32;;;;;;;12.70;100.00;101480.84;4950956;28;20047;-84
2022/10/17 07:30:45;;;;;;;7.78;5.50;;;;;;;12.74;100.00;101491.38;4919647;29;20558;-85
2022/10/17 07:33:19;;;;;;;7.20;5.70;;;;;;;12.89;100.00;101488.47;4921569;28;20047;-84
2022/10/17 07:35:45;;;;;;;7.82;6.32;;;;;;;13.18;100.00;101481.78;4951290;29;20067;-85
2022/10/17 07:38:12;;;;;;;9.55;6.10;;;;;;;13.30;100.00;101478.94;4935570;29;20172;-85
2022/10/17 07:40:38;;;;;;;7.60;5.80;;;;;;;13.28;100.00;101480.72;4935446;29;20036;-84
2022/10/17 07:43:05;;;;;;;11.05;6.03;;;;;;;13.47;100.00;101479.50;4950658;28;20050;-84
2022/10/17 07:45:32;;;;;;;6.65;5.18;;;;;;;13.61;100.00;101468.59;4934624;29;20460;-83
2022/10/17 07:47:58;;;;;;;7.15;5.10;;;;;;;13.67;100.00;101478.22;4934321;29;20074;-84
2022/10/17 07:50:25;;;;;;;6.47;5.30;;;;;;;13.76;100.00;101478.03;4922973;29;20095;-83
2022/10/17 07:52:52;;;;;;;6.55;5.45;;;;;;;13.95;100.00;101475.84;4935410;29;20043;-84
2022/10/17 07:55:19;;;;;;;6.60;5.10;;;;;;;13.96;100.00;101474.97;4920017;29;20134;-84
2022/10/17 07:57:45;;;;;;;6.50;5.22;;;;;;;14.00;100.00;101476.63;4911666;29;20559;-84
2022/10/17 08:00:12;;;;;;;8.07;6.07;;;;;;;14.14;100.00;101477.22;4931699;29;20040;-81
2022/10/17 08:02:39;;;;;;;5.97;5.00;;;;;;;14.24;100.00;101481.41;4954382;28;20452;-85
2022/10/17 08:05:06;;;;;;;6.70;4.50;;;;;;;14.30;100.00;101483.06;4968250;28;20050;-84
2022/10/17 08:07:32;;;;;;;5.70;4.47;;;;;;;14.43;100.00;101489.84;4968196;28;20039;-82
2022/10/17 08:09:59;;;;;;;5.97;4.75;;;;;;;14.54;100.00;101489.63;4935874;29;20039;-85
2022/10/17 08:12:26;;;;;;;5.68;4.65;;;;;;;14.64;100.00;101478.75;4920352;29;20050;-85
2022/10/17 08:14:53;;;;;;;6.85;4.10;;;;;;;14.76;100.00;101480.22;4935939;29;20090;-85
2022/10/17 08:17:20;;;;;;;8.60;4.05;;;;;;;14.89;100.00;101478.16;4936273;29;20047;-85
2022/10/17 08:19:47;;;;;;;6.13;4.57;;;;;;;15.10;100.00;101482.91;4921047;29;20058;-85
2022/10/17 08:22:13;;;;;;;5.50;4.03;;;;;;;15.11;100.00;101481.97;4920307;29;20559;-85
2022/10/17 08:24:45;;;;;;;5.60;4.35;;;;;;;15.21;100.00;101480.81;4920653;29;20050;-86
2022/10/17 08:27:12;;;;;;;5.03;4.32;;;;;;;15.25;100.00;101480.75;4951714;28;20039;-85
2022/10/17 08:29:39;;;;;;;6.05;4.25;;;;;;;15.35;100.00;101477.78;4920766;29;20040;-85
2022/10/17 08:32:08;;;;;;;5.50;3.80;;;;;;;15.53;100.00;101475.53;4954263;28;20149;-81
2022/10/17 08:34:35;;;;;;;5.32;4.22;;;;;;;15.56;100.00;101484.34;4953460;29;20126;-82
2022/10/17 08:37:02;;;;;;;6.68;4.32;;;;;;;15.76;100.00;101481.13;4952194;29;20156;-81
2022/10/17 08:39:29;;;;;;;6.22;3.97;;;;;;;15.74;100.00;101478.50;4953058;29;20410;-81
2022/10/17 08:42:03;;;;;;;4.47;4.05;;;;;;;16.05;100.00;101483.78;4935604;29;20102;-82
2022/10/17 08:44:39;;;;;;;5.22;3.97;;;;;;;16.16;100.00;101478.16;4950073;29;20404;-82
2022/10/17 08:47:11;;;;;;;4.18;3.30;;;;;;;16.26;100.00;101478.75;4932873;29;20520;-82
2022/10/17 08:49:51;;;;;;;4.10;3.20;;;;;;;16.43;100.00;101479.09;4939657;29;20098;-82
2022/10/17 08:52:39;;;;;;;4.30;3.15;;;;;;;16.51;100.00;101474.38;4964569;28;20098;-82
2022/10/17 08:55:14;;;;;;;3.83;3.38;;;;;;;16.70;100.00;101479.16;4937804;28;20043;-82
2022/10/17 08:57:41;;;;;;;4.88;3.63;;;;;;;16.83;100.00;101476.03;4955749;29;20122;-82
2022/10/17 09:00:18;;;;;;;4.38;3.33;;;;;;;16.97;100.00;101470.22;4955762;29;20708;-82
2022/10/17 09:03:16;;;;;;;4.05;3.40;;;;;;;17.22;100.00;101466.69;4923487;29;20093;-82
2022/10/17 09:05:52;;;;;;;5.53;2.85;;;;;;;17.44;100.00;101463.22;4955476;29;20039;-84
2022/10/17 09:09:13;;;;;;;4.93;3.80;;;;;;;17.66;100.00;101462.44;4955750;29;20444;-81
2022/10/17 09:11:58;;;;;;;6.50;3.05;;;;;;;17.92;100.00;101469.50;4951505;28;20560;-82
2022/10/17 09:15:04;;;;;;;4.63;3.15;;;;;;;18.20;100.00;101463.97;4950727;29;20047;-82
2022/10/17 09:17:48;;;;;;;5.00;3.17;;;;;;;18.48;100.00;101469.94;4953259;29;20057;-82
2022/10/17 09:20:17;;;;;;;4.65;3.55;;;;;;;18.64;100.00;101469.31;4940992;28;20047;-82
2022/10/17 09:22:51;;;;;;;3.10;2.80;;;;;;;18.77;100.00;101471.47;4956505;28;20044;-82
2022/10/17 09:25:19;;;;;;;4.97;3.50;;;;;;;18.92;100.00;101469.06;4936107;29;20067;-82
2022/10/17 09:28:13;;;;;;;3.13;2.83;;;;;;;19.06;100.00;101472.91;4938512;29;20051;-82
2022/10/17 09:30:49;;;;;;;4.40;3.00;;;;;;;19.26;100.00;101469.38;4927223;29;20501;-82
2022/10/17 09:33:22;;;;;;;5.53;3.47;;;;;;;19.40;100.00;101466.09;4922791;29;20078;-82
2022/10/17 09:36:08;;;;;;;3.80;3.40;;;;;;;19.58;100.00;101465.28;4964320;28;20051;-81
2022/10/17 09:38:38;;;;;;;4.95;3.25;;;;;;;19.72;100.00;101459.31;4939710;28;20047;-81
2022/10/17 09:41:12;;;;;;;3.38;2.92;;;;;;;19.95;98.03;101455.56;4938841;29;20070;-82
2022/10/17 09:44:13;;;;;;;4.33;3.00;;;;;;;20.12;95.26;101452.97;4951991;29;20127;-81
2022/10/17 09:46:42;;;;;;;3.58;3.08;;;;;;;20.32;92.70;101454.69;4963500;28;20571;-81
2022/10/17 09:49:17;;;;;;;4.18;2.67;;;;;;;20.36;92.79;101450.91;4935559;29;20106;-82
2022/10/17 09:51:43;;;;;;;4.40;2.78;;;;;;;20.51;90.86;101446.63;4941297;29;20035;-82
2022/10/17 09:54:23;;;;;;;4.35;3.30;;;;;;;20.56;94.15;101449.97;4938833;29;20051;-83
2022/10/17 09:57:00;;;;;;;4.68;2.83;;;;;;;20.69;92.80;101456.47;4930689;29;20308;-82
2022/10/17 09:59:35;;;;;;;4.85;3.15;;;;;;;20.88;88.03;101455.53;4953229;29;20035;-82
2022/10/17 10:02:11;;;;;;;3.85;3.00;;;;;;;21.00;87.04;101449.53;4935516;29;20063;-82
2022/10/17 10:04:51;;;;;;;4.72;2.72;;;;;;;21.02;84.80;101453.00;4956822;28;20567;-82
2022/10/17 10:07:36;;;;;;;3.58;3.03;;;;;;;21.11;85.37;101457.06;4920870;29;20095;-82
2022/10/17 10:10:06;;;;;;;4.07;2.78;;;;;;;21.21;84.94;101453.81;4926039;29;20035;-82
2022/10/17 10:12:36;;;;;;;3.53;2.63;;;;;;;21.27;86.64;101458.00;4950864;29;20049;-82
2022/10/17 10:15:33;;;;;;;4.78;2.85;;;;;;;21.30;86.02;101452.50;4948307;28;20420;-82
2022/10/17 10:17:59;;;;;;;4.40;3.13;;;;;;;21.40;83.85;101456.41;4952074;28;20118;-83
2022/10/17 10:20:30;;;;;;;3.78;2.92;;;;;;;21.49;82.75;101442.47;4952083;29;20036;-85
2022/10/17 10:23:06;;;;;;;3.95;2.90;;;;;;;21.70;82.47;101445.00;4947563;29;20091;-82
2022/10/17 10:25:34;;;;;;;4.10;3.13;;;;;;;21.65;81.81;101445.22;4962389;28;20043;-82
2022/10/17 10:28:01;;;;;;;3.75;2.65;;;;;;;21.53;83.89;101445.91;4949165;28;20054;-82
2022/10/17 10:30:29;;;;;;;4.90;3.33;;;;;;;21.45;81.99;101445.44;4930882;29;20066;-80
2022/10/17 10:32:59;;;;;;;3.20;2.90;;;;;;;21.28;85.11;101451.72;4938271;29;20069;-80
2022/10/17 10:35:34;;;;;;;4.57;2.80;;;;;;;21.41;84.34;101449.22;4916071;29;20043;-81
2022/10/17 10:38:03;;;;;;;3.38;2.72;;;;;;;21.40;84.35;101452.88;4954280;28;20040;-81
2022/10/17 10:40:32;;;;;;;4.65;2.78;;;;;;;21.41;85.67;101451.91;4966717;28;20547;-81
2022/10/17 10:42:59;;;;;;;5.47;3.10;;;;;;;21.52;83.06;101449.50;4952120;28;20118;-81
2022/10/17 10:45:37;;;;;;;4.00;2.90;;;;;;;21.58;82.40;101457.25;4954889;28;20488;-81
2022/10/17 10:48:49;;;;;;;4.65;2.90;;;;;;;21.62;82.55;101445.41;4953365;28;20055;-80
2022/10/17 10:51:20;;;;;;;3.85;3.55;;;;;;;21.64;85.20;101441.66;4936836;29;20051;-80
2022/10/17 10:53:55;;;;;;;3.97;2.78;;;;;;;21.86;82.87;101444.06;4962270;28;20519;-80
2022/10/17 10:56:42;;;;;;;5.43;2.85;;;;;;;22.05;80.57;101441.22;4941134;29;20110;-81
2022/10/17 10:59:17;;;;;;;2.60;2.40;;;;;;;22.12;83.21;101437.25;4929705;29;20047;-81
2022/10/17 11:02:12;;;;;;;4.38;2.63;;;;;;;22.34;79.22;101444.09;4927403;29;20121;-80
2022/10/17 11:04:48;;;;;;;4.47;2.85;;;;;;;22.35;76.00;101433.25;4946605;28;20050;-81
2022/10/17 11:07:21;;;;;;;3.40;3.10;;;;;;;22.47;77.94;101448.72;4954356;28;20043;-82
2022/10/17 11:09:59;;;;;;;3.15;2.85;;;;;;;22.61;76.38;101438.94;4917493;29;20036;-80
2022/10/17 11:12:33;;;;;;;4.15;2.88;;;;;;;22.60;74.57;101434.50;4932014;29;20637;-81
2022/10/17 11:15:24;;;;;;;5.00;3.30;;;;;;;22.62;74.49;101429.94;4953083;29;20679;-81
2022/10/17 11:17:56;;;;;;;5.63;3.22;;;;;;;22.64;74.40;101426.19;4968485;28;20164;-81
2022/10/17 11:20:47;;;;;;;4.25;3.00;;;;;;;22.70;74.19;101419.53;4938378;28;20457;-81
2022/10/17 11:23:30;;;;;;;4.25;3.20;;;;;;;22.70;71.65;101427.63;4935938;29;20052;-82
2022/10/17 11:26:01;;;;;;;4.88;2.80;;;;;;;22.67;75.47;101427.81;4936906;29;20067;-82
2022/10/17 11:28:28;;;;;;;4.35;3.25;;;;;;;22.72;74.39;101425.72;4922063;29;20050;-82
2022/10/17 11:31:00;;;;;;;3.38;3.08;;;;;;;22.62;72.62;101416.47;4938435;29;20075;-82
2022/10/17 11:33:51;;;;;;;4.45;3.03;;;;;;;22.61;74.36;101412.00;4939409;29;20066;-82
2022/10/17 11:36:25;;;;;;;5.72;3.25;;;;;;;22.59;75.29;101404.03;4953950;28;20043;-82
2022/10/17 11:39:09;;;;;;;5.50;3.15;;;;;;;22.37;72.83;101404.44;4938312;29;20062;-82
2022/10/17 11:41:40;;;;;;;3.67;3.15;;;;;;;22.41;73.57;101399.72;4938500;29;20043;-81
2022/10/17 11:44:25;;;;;;;3.28;2.72;;;;;;;22.68;74.21;101413.38;4938693;29;20043;-81